createdAt,value
2024-03-08T00:00:34.428Z,79.88
2024-03-08T00:03:04.372Z,80.07
2024-03-08T00:05:33.788Z,81.46
2024-03-08T00:08:02.633Z,83.11
2024-03-08T00:10:30.890Z,83.75
2024-03-08T00:12:59.156Z,84.48
2024-03-08T00:15:27.391Z,83.17
2024-03-08T00:17:55.405Z,83.63
2024-03-08T00:20:24.766Z,83.58
2024-03-08T00:22:52.602Z,84.84
2024-03-08T00:25:21.079Z,83.18
2024-03-08T00:27:50.619Z,82.81
2024-03-08T00:30:18.795Z,83.25
2024-03-08T00:32:47.099Z,83.42
2024-03-08T00:35:15.123Z,83.52
2024-03-08T00:37:44.484Z,84.92
2024-03-08T00:40:13.233Z,84.88
2024-03-08T00:42:42.607Z,82.89
2024-03-08T00:45:11.974Z,83.40
2024-03-08T00:47:40.665Z,83.09
2024-03-08T00:50:09.582Z,81.79
2024-03-08T00:52:37.917Z,82.10
2024-03-08T00:55:09.166Z,82.56
2024-03-08T00:57:37.138Z,82.67
2024-03-08T01:00:06.800Z,82.17
2024-03-08T01:02:36.809Z,81.84
2024-03-08T01:05:07.085Z,82.63
2024-03-08T01:07:35.111Z,82.37
2024-03-08T01:10:03.151Z,82.23
2024-03-08T01:12:32.447Z,82.44
2024-03-08T01:15:00.467Z,82.13
2024-03-08T01:17:28.608Z,82.14
2024-03-08T01:19:56.573Z,82.71
2024-03-08T01:22:24.793Z,82.12
2024-03-08T01:24:52.702Z,82.52
2024-03-08T01:27:20.540Z,82.89
2024-03-08T01:29:50.091Z,82.59
2024-03-08T01:32:18.198Z,82.70
2024-03-08T01:34:46.809Z,83.20
2024-03-08T01:37:15.668Z,82.83
2024-03-08T01:39:43.653Z,83.11
2024-03-08T01:42:13.792Z,83.34
2024-03-08T01:44:41.718Z,83.18
2024-03-08T01:47:11.092Z,83.45
2024-03-08T01:49:39.527Z,83.71
2024-03-08T01:52:08.314Z,83.29
2024-03-08T01:54:37.796Z,82.99
2024-03-08T01:57:06.123Z,83.28
2024-03-08T01:59:34.406Z,83.09
2024-03-08T02:02:04.298Z,83.61
2024-03-08T02:04:34.057Z,82.93
2024-03-08T02:07:01.930Z,83.74
2024-03-08T02:09:30.084Z,83.93
2024-03-08T02:11:59.536Z,83.91
2024-03-08T02:14:33.059Z,84.11
2024-03-08T02:17:03.250Z,84.16
2024-03-08T02:19:31.298Z,83.68
2024-03-08T02:22:00.907Z,83.71
2024-03-08T02:24:28.803Z,84.19
2024-03-08T02:26:57.649Z,83.84
2024-03-08T02:29:26.658Z,83.95
2024-03-08T02:31:54.713Z,84.24
2024-03-08T02:34:22.612Z,84.14
2024-03-08T02:36:50.485Z,84.08
2024-03-08T02:39:20.960Z,84.09
2024-03-08T02:41:48.934Z,84.19
2024-03-08T02:44:17.043Z,84.04
2024-03-08T02:46:44.899Z,84.46
2024-03-08T02:49:12.866Z,84.60
2024-03-08T02:51:41.691Z,85.28
2024-03-08T02:54:11.546Z,84.41
2024-03-08T02:56:41.097Z,84.55
2024-03-08T02:59:09.779Z,85.26
2024-03-08T03:01:37.736Z,85.11
2024-03-08T03:04:06.008Z,84.79
2024-03-08T03:06:34.837Z,85.05
2024-03-08T03:09:02.824Z,85.05
2024-03-08T03:11:30.836Z,85.62
2024-03-08T03:14:00.141Z,85.99
2024-03-08T03:16:28.000Z,85.97
2024-03-08T03:18:57.154Z,85.45
2024-03-08T03:21:25.113Z,85.84
2024-03-08T03:23:53.912Z,86.30
2024-03-08T03:26:23.040Z,86.77
2024-03-08T03:28:50.940Z,86.63
2024-03-08T03:31:20.268Z,87.61
2024-03-08T03:33:48.387Z,87.57
2024-03-08T03:36:17.618Z,87.48
2024-03-08T03:38:45.703Z,87.87
2024-03-08T03:41:15.470Z,87.89
2024-03-08T03:43:43.400Z,87.47
2024-03-08T03:46:11.894Z,87.39
2024-03-08T03:48:44.636Z,87.97
2024-03-08T03:51:12.723Z,88.15
2024-03-08T03:53:40.769Z,88.50
2024-03-08T03:56:08.953Z,87.77
2024-03-08T03:58:37.613Z,88.33
2024-03-08T04:01:07.391Z,87.87
2024-03-08T04:03:35.409Z,88.31
2024-03-08T04:06:05.785Z,88.37
2024-03-08T04:08:35.280Z,88.14
2024-03-08T04:11:03.669Z,87.78
2024-03-08T04:13:31.513Z,88.05
2024-03-08T04:15:59.326Z,88.15
2024-03-08T04:18:27.352Z,88.60
2024-03-08T04:20:55.291Z,88.69
2024-03-08T04:23:24.622Z,89.01
2024-03-08T04:25:52.425Z,88.95
2024-03-08T04:28:20.323Z,88.46
2024-03-08T04:30:48.257Z,88.09
2024-03-08T04:33:17.669Z,88.35
2024-03-08T04:35:47.160Z,88.28
2024-03-08T04:38:15.271Z,88.34
2024-03-08T04:40:44.711Z,89.30
2024-03-08T04:43:13.494Z,89.68
2024-03-08T04:45:43.454Z,89.25
2024-03-08T04:48:12.909Z,89.61
2024-03-08T04:50:41.184Z,89.18
2024-03-08T04:53:09.844Z,89.21
2024-03-08T04:55:38.557Z,90.12
2024-03-08T04:58:08.074Z,89.11
2024-03-08T05:00:36.352Z,89.68
2024-03-08T05:03:06.003Z,90.12
2024-03-08T05:05:34.504Z,90.47
2024-03-08T05:08:03.925Z,89.53
2024-03-08T05:10:32.090Z,90.15
2024-03-08T05:13:00.044Z,90.34
2024-03-08T05:15:29.344Z,90.47
2024-03-08T05:17:59.166Z,90.24
2024-03-08T05:20:27.265Z,90.28
2024-03-08T05:22:55.177Z,91.47
2024-03-08T05:25:23.339Z,90.87
2024-03-08T05:27:51.300Z,90.55
2024-03-08T05:30:19.575Z,90.82
2024-03-08T05:32:48.986Z,90.21
2024-03-08T05:35:17.638Z,90.46
2024-03-08T05:37:45.897Z,90.60
2024-03-08T05:40:17.219Z,90.50
2024-03-08T05:42:46.954Z,91.80
2024-03-08T05:45:16.292Z,91.58
2024-03-08T05:47:44.368Z,92.94
2024-03-08T05:50:13.768Z,92.41
2024-03-08T05:52:41.815Z,92.94
2024-03-08T05:55:11.328Z,93.51
2024-03-08T05:57:41.240Z,93.99
2024-03-08T06:00:12.285Z,94.35
2024-03-08T06:02:43.143Z,94.59
2024-03-08T06:05:13.233Z,95.20
2024-03-08T06:07:41.728Z,95.63
2024-03-08T06:10:14.126Z,96.37
2024-03-08T06:12:42.722Z,97.98
2024-03-08T06:15:15.831Z,97.80
2024-03-08T06:17:44.414Z,98.78
2024-03-08T06:20:14.816Z,98.65
2024-03-08T06:22:43.202Z,99.01
2024-03-08T06:25:12.420Z,99.94
2024-03-08T06:27:40.480Z,99.79
2024-03-08T06:30:11.176Z,99.87
2024-03-08T06:32:39.728Z,99.12
2024-03-08T06:35:09.345Z,99.57
2024-03-08T06:37:41.504Z,98.59
2024-03-08T06:40:14.649Z,99.10
2024-03-08T06:42:44.260Z,97.54
2024-03-08T06:45:13.747Z,94.71
2024-03-08T06:47:42.942Z,92.55
2024-03-08T06:50:12.500Z,91.57
2024-03-08T06:52:43.569Z,89.64
2024-03-08T06:55:13.219Z,88.64
2024-03-08T06:57:41.812Z,87.51
2024-03-08T07:00:12.928Z,86.03
2024-03-08T07:02:41.916Z,84.41
2024-03-08T07:05:11.595Z,83.01
2024-03-08T07:07:42.518Z,82.85
2024-03-08T07:10:12.226Z,81.92
2024-03-08T07:12:40.428Z,80.35
2024-03-08T07:15:09.485Z,79.55
2024-03-08T07:17:38.024Z,77.75
2024-03-08T07:20:12.103Z,77.23
2024-03-08T07:22:42.588Z,75.72
2024-03-08T07:25:22.868Z,76.13
2024-03-08T07:27:52.544Z,74.67
2024-03-08T07:30:34.745Z,73.28
2024-03-08T07:33:03.962Z,73.44
2024-03-08T07:35:32.278Z,72.89
2024-03-08T07:38:01.663Z,70.61
2024-03-08T07:40:29.617Z,69.51
2024-03-08T07:42:57.745Z,69.13
2024-03-08T07:45:25.674Z,67.88
2024-03-08T07:47:54.672Z,66.44
2024-03-08T07:50:23.928Z,68.75
2024-03-08T07:52:52.142Z,67.07
2024-03-08T07:55:21.453Z,67.51
2024-03-08T07:57:49.760Z,65.32
2024-03-08T08:00:19.879Z,62.93
2024-03-08T08:02:47.910Z,63.31
2024-03-08T08:05:16.081Z,62.38
2024-03-08T08:07:48.539Z,62.82
2024-03-08T08:10:19.737Z,63.67
2024-03-08T08:12:49.326Z,62.02
2024-03-08T08:15:17.730Z,64.15
2024-03-08T08:17:46.031Z,63.61
2024-03-08T08:20:14.888Z,63.07
2024-03-08T08:22:44.287Z,61.82
2024-03-08T08:25:14.287Z,62.53
2024-03-08T08:27:43.774Z,62.21
2024-03-08T08:30:14.893Z,59.90
2024-03-08T08:32:43.548Z,58.42
2024-03-08T08:35:13.630Z,57.96
2024-03-08T08:37:41.859Z,58.53
2024-03-08T08:40:11.905Z,57.62
2024-03-08T08:42:39.931Z,56.28
2024-03-08T08:45:15.830Z,55.39
2024-03-08T08:47:48.066Z,53.80
2024-03-08T08:50:17.210Z,54.68
2024-03-08T08:52:45.354Z,53.15
2024-03-08T08:55:15.682Z,53.75
2024-03-08T08:57:44.014Z,52.84
2024-03-08T09:00:16.277Z,55.29
2024-03-08T09:02:44.668Z,55.29
2024-03-08T09:05:17.717Z,55.15
2024-03-08T09:07:46.746Z,53.98
2024-03-08T09:10:17.406Z,53.22
2024-03-08T09:12:47.058Z,53.58
2024-03-08T09:15:15.361Z,54.58
2024-03-08T09:17:44.298Z,53.49
2024-03-08T09:20:16.121Z,52.96
2024-03-08T09:22:46.992Z,50.41
2024-03-08T09:25:15.323Z,51.42
2024-03-08T09:27:43.303Z,50.42
2024-03-08T09:30:14.375Z,50.52
2024-03-08T09:32:42.541Z,50.73
2024-03-08T09:35:12.197Z,50.25
2024-03-08T09:37:41.442Z,50.03
2024-03-08T09:40:11.946Z,49.94
2024-03-08T09:42:40.010Z,49.09
2024-03-08T09:45:11.826Z,47.73
2024-03-08T09:47:42.845Z,48.34
2024-03-08T09:50:13.682Z,48.36
2024-03-08T09:52:45.393Z,47.04
2024-03-08T09:55:13.932Z,46.47
2024-03-08T09:57:43.812Z,47.06
2024-03-08T10:00:19.809Z,48.00
2024-03-08T10:02:47.968Z,47.25
2024-03-08T10:05:16.106Z,47.95
2024-03-08T10:07:45.380Z,46.24
2024-03-08T10:10:13.700Z,45.77
2024-03-08T10:12:41.808Z,45.67
2024-03-08T10:15:10.552Z,46.53
2024-03-08T10:17:38.789Z,45.71
2024-03-08T10:20:16.728Z,45.70
2024-03-08T10:22:57.842Z,45.44
2024-03-08T10:25:31.641Z,44.15
2024-03-08T10:27:59.528Z,43.59
2024-03-08T10:30:27.562Z,45.02
2024-03-08T10:32:55.827Z,44.18
2024-03-08T10:35:23.949Z,43.84
2024-03-08T10:38:00.681Z,44.34
2024-03-08T10:40:30.288Z,43.43
2024-03-08T10:42:59.966Z,44.24
2024-03-08T10:45:38.098Z,44.38
2024-03-08T10:48:35.654Z,43.83
2024-03-08T10:51:08.385Z,43.27
2024-03-08T10:53:42.507Z,43.30
2024-03-08T10:56:11.546Z,42.79
2024-03-08T10:58:40.465Z,42.47
2024-03-08T11:01:08.557Z,44.36
2024-03-08T11:03:54.502Z,43.98
2024-03-08T11:06:31.558Z,43.17
2024-03-08T11:09:01.452Z,43.25
2024-03-08T11:11:34.475Z,42.96
2024-03-08T11:14:05.857Z,42.98
2024-03-08T11:16:42.830Z,42.90
2024-03-08T11:19:27.167Z,42.83
2024-03-08T11:22:02.588Z,42.37
2024-03-08T11:24:40.956Z,42.54
2024-03-08T11:27:10.941Z,42.76
2024-03-08T11:29:40.959Z,42.51
2024-03-08T11:32:14.330Z,42.53
2024-03-08T11:34:45.765Z,41.97
2024-03-08T11:37:16.123Z,41.61
2024-03-08T11:39:50.738Z,41.27
2024-03-08T11:42:19.557Z,41.10
2024-03-08T11:44:48.774Z,41.38
2024-03-08T11:47:18.146Z,41.21
2024-03-08T11:49:48.827Z,41.79
2024-03-08T11:52:18.139Z,41.37
2024-03-08T11:54:59.024Z,40.74
2024-03-08T11:57:29.772Z,41.01
2024-03-08T11:59:58.682Z,42.01
2024-03-08T12:02:28.788Z,41.35
2024-03-08T12:05:01.679Z,41.67
2024-03-08T12:07:30.219Z,41.18
2024-03-08T12:10:19.920Z,40.53
2024-03-08T12:12:48.791Z,40.30
2024-03-08T12:15:19.160Z,40.23
2024-03-08T12:17:49.486Z,41.18
2024-03-08T12:20:19.469Z,40.57
2024-03-08T12:22:47.581Z,41.04
2024-03-08T12:25:17.383Z,41.22
2024-03-08T12:27:46.936Z,41.35
2024-03-08T12:30:21.246Z,40.25
2024-03-08T12:32:53.191Z,40.57
2024-03-08T12:35:23.195Z,39.90
2024-03-08T12:37:53.147Z,39.87
2024-03-08T12:40:22.531Z,39.79
2024-03-08T12:42:51.862Z,38.72
2024-03-08T12:45:19.972Z,38.37
2024-03-08T12:47:49.234Z,38.78
2024-03-08T12:50:17.977Z,39.31
2024-03-08T12:52:46.656Z,40.10
2024-03-08T12:55:15.414Z,40.11
2024-03-08T12:57:43.503Z,39.86
2024-03-08T13:00:20.006Z,40.11
2024-03-08T13:02:48.229Z,40.04
2024-03-08T13:05:16.406Z,39.60
2024-03-08T13:07:47.686Z,39.11
2024-03-08T13:10:16.825Z,40.29
2024-03-08T13:12:44.996Z,40.30
2024-03-08T13:15:17.232Z,40.83
2024-03-08T13:17:47.742Z,39.45
2024-03-08T13:20:27.793Z,38.69
2024-03-08T13:23:02.734Z,38.98
2024-03-08T13:25:30.825Z,38.57
2024-03-08T13:28:00.558Z,38.81
2024-03-08T13:30:31.881Z,39.32
2024-03-08T13:33:00.042Z,39.28
2024-03-08T13:35:29.406Z,38.18
2024-03-08T13:37:57.442Z,37.97
2024-03-08T13:40:25.625Z,38.21
2024-03-08T13:42:53.797Z,38.35
2024-03-08T13:45:24.850Z,39.58
2024-03-08T13:47:56.029Z,38.63
2024-03-08T13:50:24.831Z,39.25
2024-03-08T13:52:55.539Z,39.91
2024-03-08T13:55:26.921Z,40.60
2024-03-08T13:57:55.367Z,39.79
2024-03-08T14:00:26.239Z,40.08
2024-03-08T14:02:55.997Z,39.66
2024-03-08T14:05:24.188Z,39.20
2024-03-08T14:07:55.434Z,39.67
2024-03-08T14:10:24.567Z,38.89
2024-03-08T14:12:52.824Z,39.90
2024-03-08T14:15:21.566Z,39.58
2024-03-08T14:17:56.627Z,39.80
2024-03-08T14:20:26.760Z,40.29
2024-03-08T14:22:55.983Z,40.11
2024-03-08T14:25:24.911Z,39.58
2024-03-08T14:27:54.749Z,40.49
2024-03-08T14:30:36.523Z,40.91
2024-03-08T14:33:10.226Z,40.13
2024-03-08T14:35:38.384Z,39.78
2024-03-08T14:38:09.749Z,40.35
2024-03-08T14:40:39.243Z,40.51
2024-03-08T14:43:07.558Z,40.26
2024-03-08T14:45:36.031Z,40.44
2024-03-08T14:48:05.866Z,40.77
2024-03-08T14:50:38.111Z,40.26
2024-03-08T14:53:08.011Z,40.38
2024-03-08T14:55:36.381Z,40.90
2024-03-08T14:58:05.411Z,40.69
2024-03-08T15:00:35.990Z,40.79
2024-03-08T15:03:06.091Z,40.32
2024-03-08T15:05:39.390Z,40.81
2024-03-08T15:08:12.738Z,41.17
2024-03-08T15:10:43.148Z,41.07
2024-03-08T15:13:17.386Z,41.01
2024-03-08T15:15:46.784Z,40.85
2024-03-08T15:18:15.180Z,41.16
2024-03-08T15:20:44.542Z,42.01
2024-03-08T15:23:12.497Z,41.46
2024-03-08T15:25:43.262Z,41.34
2024-03-08T15:28:15.855Z,42.12
2024-03-08T15:30:47.851Z,42.38
2024-03-08T15:33:25.301Z,42.65
2024-03-08T15:36:00.024Z,43.19
2024-03-08T15:38:29.408Z,43.58
2024-03-08T15:40:57.885Z,42.72
2024-03-08T15:43:26.418Z,43.71
2024-03-08T15:45:55.766Z,43.68
2024-03-08T15:48:23.754Z,43.47
2024-03-08T15:50:52.082Z,43.58
2024-03-08T15:53:21.471Z,44.03
2024-03-08T15:55:50.468Z,44.24
2024-03-08T15:58:18.491Z,44.40
2024-03-08T16:00:49.119Z,45.01
2024-03-08T16:03:17.433Z,44.65
2024-03-08T16:05:46.269Z,45.31
2024-03-08T16:08:17.767Z,44.82
2024-03-08T16:10:51.053Z,45.31
2024-03-08T16:13:23.779Z,45.56
2024-03-08T16:15:53.092Z,45.62
2024-03-08T16:18:23.724Z,45.40
2024-03-08T16:20:52.962Z,45.99
2024-03-08T16:23:21.188Z,46.63
2024-03-08T16:25:50.898Z,46.22
2024-03-08T16:28:19.685Z,46.16
2024-03-08T16:30:49.542Z,46.66
2024-03-08T16:33:19.477Z,46.11
2024-03-08T16:35:47.914Z,46.88
2024-03-08T16:38:17.486Z,46.66
2024-03-08T16:40:48.557Z,46.63
2024-03-08T16:43:20.008Z,47.54
2024-03-08T16:45:51.770Z,47.51
2024-03-08T16:48:25.439Z,47.35
2024-03-08T16:50:55.616Z,48.30
2024-03-08T16:53:25.192Z,47.46
2024-03-08T16:55:54.086Z,47.45
2024-03-08T16:58:24.797Z,48.32
2024-03-08T17:00:52.757Z,48.14
2024-03-08T17:03:21.918Z,48.84
2024-03-08T17:05:55.310Z,48.47
2024-03-08T17:08:24.700Z,49.08
2024-03-08T17:10:53.503Z,49.06
2024-03-08T17:13:23.420Z,49.49
2024-03-08T17:15:51.336Z,49.26
2024-03-08T17:18:19.724Z,49.50
2024-03-08T17:20:47.737Z,49.69
2024-03-08T17:23:17.155Z,49.99
2024-03-08T17:25:47.601Z,50.12
2024-03-08T17:28:16.529Z,50.34
2024-03-08T17:30:47.992Z,50.25
2024-03-08T17:33:22.680Z,50.40
2024-03-08T17:35:53.784Z,50.80
2024-03-08T17:38:25.537Z,50.96
2024-03-08T17:40:53.739Z,50.94
2024-03-08T17:43:24.905Z,51.65
2024-03-08T17:45:56.590Z,51.24
2024-03-08T17:48:24.683Z,51.50
2024-03-08T17:50:55.058Z,51.83
2024-03-08T17:53:23.132Z,52.28
2024-03-08T17:55:53.063Z,52.20
2024-03-08T17:58:21.766Z,52.70
2024-03-08T18:00:52.405Z,52.84
2024-03-08T18:03:28.857Z,52.88
2024-03-08T18:05:57.521Z,53.14
2024-03-08T18:08:25.497Z,53.55
2024-03-08T18:10:53.992Z,54.07
2024-03-08T18:13:22.550Z,54.18
2024-03-08T18:15:50.774Z,54.19
2024-03-08T18:18:19.132Z,54.47
2024-03-08T18:20:49.949Z,55.02
2024-03-08T18:23:21.739Z,55.38
2024-03-08T18:25:49.922Z,55.73
2024-03-08T18:28:19.399Z,55.72
2024-03-08T18:30:50.694Z,55.78
2024-03-08T18:33:19.736Z,56.37
2024-03-08T18:35:49.447Z,56.11
2024-03-08T18:38:19.724Z,56.60
2024-03-08T18:40:49.144Z,57.27
2024-03-08T18:43:18.284Z,57.17
2024-03-08T18:45:46.790Z,57.56
2024-03-08T18:48:15.281Z,57.59
2024-03-08T18:50:46.380Z,57.75
2024-03-08T18:53:15.887Z,57.99
2024-03-08T18:55:44.555Z,58.29
2024-03-08T18:58:12.767Z,57.96
2024-03-08T19:00:42.474Z,57.90
2024-03-08T19:03:11.126Z,58.60
2024-03-08T19:05:41.714Z,59.17
2024-03-08T19:08:10.789Z,59.96
2024-03-08T19:10:41.725Z,59.41
2024-03-08T19:13:12.286Z,60.08
2024-03-08T19:15:40.178Z,60.62
2024-03-08T19:18:09.644Z,60.57
2024-03-08T19:20:38.667Z,60.31
2024-03-08T19:23:07.877Z,61.20
2024-03-08T19:25:42.182Z,61.58
2024-03-08T19:28:14.261Z,61.44
2024-03-08T19:30:42.732Z,61.43
2024-03-08T19:33:13.969Z,61.70
2024-03-08T19:35:43.412Z,61.56
2024-03-08T19:38:13.122Z,62.74
2024-03-08T19:40:43.808Z,63.03
2024-03-08T19:43:16.344Z,63.23
2024-03-08T19:45:46.413Z,63.39
2024-03-08T19:48:19.438Z,63.62
2024-03-08T19:50:49.340Z,63.39
2024-03-08T19:53:18.980Z,63.68
2024-03-08T19:55:52.167Z,63.38
2024-03-08T19:58:22.930Z,63.86
2024-03-08T20:00:51.551Z,64.17
2024-03-08T20:03:24.637Z,64.22
2024-03-08T20:05:55.061Z,64.32
2024-03-08T20:08:25.218Z,64.63
2024-03-08T20:10:53.979Z,64.67
2024-03-08T20:13:23.538Z,64.26
2024-03-08T20:15:55.442Z,64.60
2024-03-08T20:18:27.773Z,64.93
2024-03-08T20:20:56.203Z,64.97
2024-03-08T20:23:25.150Z,64.00
2024-03-08T20:25:53.466Z,63.27
2024-03-08T20:28:22.899Z,63.45
2024-03-08T20:30:52.029Z,62.81
2024-03-08T20:33:20.350Z,63.20
2024-03-08T20:35:51.278Z,63.08
2024-03-08T20:38:22.081Z,64.07
2024-03-08T20:40:51.525Z,64.19
2024-03-08T20:43:22.860Z,64.11
2024-03-08T20:45:53.796Z,63.52
2024-03-08T20:48:22.772Z,63.77
2024-03-08T20:50:52.359Z,64.48
2024-03-08T20:53:20.929Z,63.85
2024-03-08T20:55:51.391Z,64.34
2024-03-08T20:58:19.985Z,64.21
2024-03-08T21:00:55.459Z,64.84
2024-03-08T21:03:28.297Z,64.31
2024-03-08T21:05:57.364Z,64.32
2024-03-08T21:08:29.628Z,64.68
2024-03-08T21:10:59.624Z,64.75
2024-03-08T21:13:28.481Z,64.56
2024-03-08T21:15:57.385Z,64.68
2024-03-08T21:18:27.865Z,63.93
2024-03-08T21:20:56.840Z,64.00
2024-03-08T21:23:26.303Z,64.65
2024-03-08T21:25:54.601Z,64.40
2024-03-08T21:28:30.137Z,64.28
2024-03-08T21:31:00.256Z,64.30
2024-03-08T21:33:29.574Z,63.58
2024-03-08T21:35:57.446Z,64.65
2024-03-08T21:38:26.829Z,64.38
2024-03-08T21:41:02.464Z,65.08
2024-03-08T21:43:34.509Z,65.09
2024-03-08T21:46:03.072Z,66.37
2024-03-08T21:48:33.695Z,66.07
2024-03-08T21:51:01.834Z,66.74
2024-03-08T21:53:34.764Z,67.04
2024-03-08T21:56:04.778Z,66.96
2024-03-08T21:58:34.191Z,66.64
2024-03-08T22:01:02.297Z,67.72
2024-03-08T22:03:32.726Z,68.00
2024-03-08T22:06:05.392Z,67.59
2024-03-08T22:08:34.471Z,68.02
2024-03-08T22:11:02.726Z,68.57
2024-03-08T22:13:30.832Z,68.52
2024-03-08T22:15:58.804Z,68.72
2024-03-08T22:18:31.297Z,69.05
2024-03-08T22:20:59.311Z,68.28
2024-03-08T22:23:28.557Z,68.26
2024-03-08T22:25:56.496Z,68.85
2024-03-08T22:28:26.988Z,68.78
2024-03-08T22:30:55.658Z,68.46
2024-03-08T22:33:25.770Z,68.45
2024-03-08T22:35:55.185Z,68.26
2024-03-08T22:38:23.757Z,67.78
2024-03-08T22:40:53.080Z,67.60
2024-03-08T22:43:21.213Z,68.21
2024-03-08T22:45:50.266Z,67.77
2024-03-08T22:48:18.267Z,68.11
2024-03-08T22:50:46.580Z,67.99
2024-03-08T22:53:15.278Z,67.30
2024-03-08T22:55:43.646Z,66.91
2024-03-08T22:58:15.415Z,67.22
2024-03-08T23:00:56.909Z,67.49
2024-03-08T23:03:25.302Z,67.67
2024-03-08T23:05:53.976Z,67.41
2024-03-08T23:08:22.300Z,67.89
2024-03-08T23:10:50.646Z,68.01
2024-03-08T23:13:20.612Z,68.46
2024-03-08T23:15:48.445Z,68.76
2024-03-08T23:18:16.501Z,69.01
2024-03-08T23:20:44.513Z,69.22
2024-03-08T23:23:13.534Z,69.45
2024-03-08T23:25:42.876Z,69.97
2024-03-08T23:28:13.248Z,69.54
2024-03-08T23:30:45.643Z,69.50
2024-03-08T23:33:16.043Z,68.87
2024-03-08T23:35:45.786Z,69.30
2024-03-08T23:38:14.177Z,70.76
2024-03-08T23:40:42.490Z,69.92
2024-03-08T23:43:10.478Z,70.91
2024-03-08T23:45:39.198Z,70.49
2024-03-08T23:48:11.607Z,70.20
2024-03-08T23:50:39.790Z,70.18
2024-03-08T23:53:08.644Z,71.15
2024-03-08T23:55:38.882Z,71.90
2024-03-08T23:58:10.254Z,71.73
